createdAt,value
2022-11-10T00:00:29.626Z,4.20
2022-11-10T00:03:04.269Z,4.20
2022-11-10T00:05:31.364Z,4.20
2022-11-10T00:08:01.708Z,4.20
2022-11-10T00:10:28.472Z,4.30
2022-11-10T00:12:55.245Z,4.30
2022-11-10T00:15:40.446Z,4.20
2022-11-10T00:18:07.350Z,4.40
2022-11-10T00:20:34.112Z,4.30
2022-11-10T00:23:00.818Z,4.20
2022-11-10T00:25:32.184Z,4.30
2022-11-10T00:28:00.039Z,4.30
2022-11-10T00:30:27.046Z,4.40
2022-11-10T00:32:53.931Z,4.40
2022-11-10T00:35:20.641Z,4.30
2022-11-10T00:37:50.117Z,4.30
2022-11-10T00:40:17.270Z,4.20
2022-11-10T00:42:44.021Z,4.20
2022-11-10T00:45:10.944Z,4.20
2022-11-10T00:47:37.971Z,4.20
2022-11-10T00:50:05.089Z,4.20
2022-11-10T00:52:34.016Z,4.20
2022-11-10T00:55:01.277Z,4.20
2022-11-10T00:57:27.969Z,4.30
2022-11-10T00:59:54.648Z,4.20
2022-11-10T01:02:21.446Z,4.20
2022-11-10T01:04:48.156Z,4.10
2022-11-10T01:07:15.169Z,4.10
2022-11-10T01:09:42.068Z,4.20
2022-11-10T01:12:09.043Z,4.20
2022-11-10T01:14:35.803Z,4.20
2022-11-10T01:17:02.486Z,4.10
2022-11-10T01:19:29.555Z,4.20
2022-11-10T01:21:56.347Z,4.10
2022-11-10T01:24:23.050Z,4.20
2022-11-10T01:26:50.185Z,4.20
2022-11-10T01:29:16.918Z,4.10
2022-11-10T01:31:44.432Z,4.10
2022-11-10T01:34:11.250Z,4.00
2022-11-10T01:36:38.082Z,4.00
2022-11-10T01:39:04.965Z,4.10
2022-11-10T01:41:31.762Z,4.10
2022-11-10T01:44:13.601Z,4.10
2022-11-10T01:46:40.434Z,4.00
2022-11-10T01:49:07.653Z,4.10
2022-11-10T01:51:51.927Z,4.00
2022-11-10T01:54:28.198Z,4.10
2022-11-10T01:57:00.351Z,4.10
2022-11-10T01:59:30.397Z,4.00
2022-11-10T02:02:09.701Z,4.10
2022-11-10T02:04:37.742Z,4.10
2022-11-10T02:07:04.959Z,4.10
2022-11-10T02:09:31.934Z,4.00
2022-11-10T02:11:58.794Z,4.00
2022-11-10T02:14:26.051Z,4.10
2022-11-10T02:16:52.902Z,4.00
2022-11-10T02:19:22.764Z,4.10
2022-11-10T02:21:49.677Z,3.90
2022-11-10T02:24:16.738Z,3.80
2022-11-10T02:26:57.824Z,3.90
2022-11-10T02:29:25.974Z,3.90
2022-11-10T02:31:53.064Z,3.90
2022-11-10T02:34:19.934Z,4.00
2022-11-10T02:36:46.668Z,4.00
2022-11-10T02:39:13.658Z,4.00
2022-11-10T02:41:40.356Z,4.10
2022-11-10T02:44:08.079Z,4.00
2022-11-10T02:46:37.634Z,4.10
2022-11-10T02:49:04.419Z,4.10
2022-11-10T02:51:31.246Z,4.00
2022-11-10T02:53:58.285Z,4.00
2022-11-10T02:56:25.007Z,4.00
2022-11-10T02:58:51.744Z,4.00
2022-11-10T03:01:18.912Z,4.00
2022-11-10T03:03:45.644Z,4.00
2022-11-10T03:06:12.359Z,4.00
2022-11-10T03:08:39.595Z,4.10
2022-11-10T03:11:06.743Z,4.00
2022-11-10T03:13:51.622Z,3.90
2022-11-10T03:16:20.685Z,3.90
2022-11-10T03:18:47.391Z,3.90
2022-11-10T03:21:14.116Z,3.90
2022-11-10T03:23:40.984Z,4.00
2022-11-10T03:26:08.007Z,3.90
2022-11-10T03:28:35.047Z,3.90
2022-11-10T03:31:01.941Z,4.00
2022-11-10T03:33:28.703Z,3.90
2022-11-10T03:35:55.424Z,3.90
2022-11-10T03:38:22.406Z,4.00
2022-11-10T03:41:17.557Z,4.00
2022-11-10T03:43:37.753Z,4.10
2022-11-10T03:46:04.580Z,3.90
2022-11-10T03:48:31.462Z,3.90
2022-11-10T03:50:58.178Z,4.00
2022-11-10T03:53:25.256Z,3.90
2022-11-10T03:55:52.190Z,3.90
2022-11-10T03:58:18.894Z,3.90
2022-11-10T04:00:45.756Z,4.00
2022-11-10T04:03:12.513Z,4.00
2022-11-10T04:05:58.209Z,4.00
2022-11-10T04:08:43.578Z,4.00
2022-11-10T04:11:10.602Z,4.20
2022-11-10T04:13:55.687Z,4.20
2022-11-10T04:16:23.802Z,4.20
2022-11-10T04:18:50.499Z,4.30
2022-11-10T04:21:17.309Z,4.30
2022-11-10T04:23:44.335Z,4.30
2022-11-10T04:26:32.752Z,4.50
2022-11-10T04:29:03.611Z,4.50
2022-11-10T04:31:33.511Z,4.50
2022-11-10T04:34:00.345Z,4.50
2022-11-10T04:36:29.873Z,4.50
2022-11-10T04:38:56.964Z,4.50
2022-11-10T04:41:25.138Z,4.50
2022-11-10T04:43:52.269Z,4.60
2022-11-10T04:46:39.783Z,4.70
2022-11-10T04:49:07.694Z,4.60
2022-11-10T04:51:37.309Z,4.80
2022-11-10T04:54:05.890Z,4.80
2022-11-10T04:56:34.586Z,4.80
2022-11-10T04:59:01.337Z,4.90
2022-11-10T05:01:28.831Z,4.90
2022-11-10T05:03:55.694Z,4.90
2022-11-10T05:06:24.626Z,5.10
2022-11-10T05:08:51.972Z,5.00
2022-11-10T05:11:19.100Z,5.10
2022-11-10T05:13:46.752Z,5.10
2022-11-10T05:16:14.203Z,5.20
2022-11-10T05:18:41.548Z,5.10
2022-11-10T05:21:08.726Z,5.30
2022-11-10T05:23:38.217Z,5.20
2022-11-10T05:26:14.326Z,5.20
2022-11-10T05:28:42.811Z,5.30
2022-11-10T05:31:09.908Z,5.20
2022-11-10T05:33:37.944Z,5.30
2022-11-10T05:36:06.824Z,5.30
2022-11-10T05:38:37.565Z,5.30
2022-11-10T05:41:07.409Z,5.30
2022-11-10T05:43:34.085Z,5.30
2022-11-10T05:46:00.964Z,5.30
2022-11-10T05:48:27.873Z,5.40
2022-11-10T05:50:54.562Z,5.40
2022-11-10T05:53:21.537Z,5.40
2022-11-10T05:55:48.806Z,5.40
2022-11-10T05:58:15.529Z,5.50
2022-11-10T06:00:42.331Z,5.50
2022-11-10T06:03:20.102Z,5.60
2022-11-10T06:05:47.419Z,5.60
2022-11-10T06:08:14.176Z,5.60
2022-11-10T06:10:41.422Z,5.60
2022-11-10T06:13:08.190Z,5.70
2022-11-10T06:15:35.261Z,5.60
2022-11-10T06:18:02.445Z,5.70
2022-11-10T06:20:29.430Z,5.70
2022-11-10T06:23:26.710Z,5.80
2022-11-10T06:25:56.230Z,5.80
2022-11-10T06:28:23.055Z,5.80
2022-11-10T06:30:49.919Z,5.80
2022-11-10T06:33:16.713Z,5.80
2022-11-10T06:35:45.261Z,5.80
2022-11-10T06:38:12.891Z,5.80
2022-11-10T06:40:39.651Z,5.90
2022-11-10T06:43:06.848Z,5.90
2022-11-10T06:45:33.629Z,5.90
2022-11-10T06:48:07.981Z,5.90
2022-11-10T06:50:35.140Z,5.90
2022-11-10T06:53:02.560Z,5.90
2022-11-10T06:55:30.047Z,5.90
2022-11-10T06:57:57.642Z,5.90
2022-11-10T07:00:26.205Z,5.90
2022-11-10T07:03:04.101Z,6.00
2022-11-10T07:05:32.946Z,6.00
2022-11-10T07:08:07.432Z,6.00
2022-11-10T07:10:35.032Z,6.00
2022-11-10T07:13:03.346Z,6.10
2022-11-10T07:15:30.518Z,6.10
2022-11-10T07:17:57.535Z,6.10
2022-11-10T07:20:26.047Z,6.10
2022-11-10T07:22:58.912Z,6.20
2022-11-10T07:25:26.086Z,6.20
2022-11-10T07:28:00.767Z,6.30
2022-11-10T07:30:29.181Z,6.30
2022-11-10T07:33:04.963Z,6.30
2022-11-10T07:35:32.724Z,6.40
2022-11-10T07:38:04.054Z,6.40
2022-11-10T07:40:31.655Z,6.40
2022-11-10T07:42:58.757Z,6.40
2022-11-10T07:45:26.187Z,6.40
2022-11-10T07:48:01.639Z,6.50
2022-11-10T07:50:28.425Z,6.50
2022-11-10T07:53:17.067Z,6.50
2022-11-10T07:55:45.264Z,6.60
2022-11-10T07:58:14.076Z,6.60
2022-11-10T08:00:41.278Z,6.60
2022-11-10T08:03:15.442Z,6.60
2022-11-10T08:05:42.575Z,6.60
2022-11-10T08:08:12.922Z,6.70
2022-11-10T08:10:40.911Z,6.70
2022-11-10T08:13:10.166Z,6.70
2022-11-10T08:15:37.513Z,6.70
2022-11-10T08:18:21.905Z,6.80
2022-11-10T08:20:48.868Z,6.80
2022-11-10T08:23:16.321Z,6.80
2022-11-10T08:25:44.968Z,6.90
2022-11-10T08:28:15.101Z,6.90
2022-11-10T08:30:43.585Z,6.90
2022-11-10T08:33:12.938Z,6.90
2022-11-10T08:35:47.184Z,7.00
2022-11-10T08:38:22.293Z,7.00
2022-11-10T08:40:49.620Z,7.10
2022-11-10T08:43:17.833Z,7.10
2022-11-10T08:45:45.475Z,7.10
2022-11-10T08:48:18.252Z,7.20
2022-11-10T08:50:45.552Z,7.20
2022-11-10T08:53:21.865Z,7.20
2022-11-10T08:55:49.456Z,7.30
2022-11-10T08:58:19.188Z,7.30
2022-11-10T09:00:46.367Z,7.30
2022-11-10T09:03:21.043Z,7.30
2022-11-10T09:05:53.548Z,7.40
2022-11-10T09:08:23.812Z,7.40
2022-11-10T09:10:51.173Z,7.50
2022-11-10T09:13:19.002Z,7.50
2022-11-10T09:15:46.068Z,7.50
2022-11-10T09:18:14.381Z,7.60
2022-11-10T09:20:41.725Z,7.60
2022-11-10T09:23:20.150Z,7.70
2022-11-10T09:25:52.494Z,7.70
2022-11-10T09:28:20.615Z,7.80
2022-11-10T09:30:49.653Z,7.90
2022-11-10T09:33:17.031Z,8.00
2022-11-10T09:35:44.165Z,8.10
2022-11-10T09:38:12.726Z,8.20
2022-11-10T09:41:02.997Z,8.30
2022-11-10T09:44:05.586Z,8.30
2022-11-10T09:46:48.977Z,8.40
2022-11-10T09:49:24.738Z,8.40
2022-11-10T09:51:52.980Z,8.50
2022-11-10T09:54:47.420Z,8.50
2022-11-10T09:57:18.665Z,8.60
2022-11-10T09:59:45.476Z,8.60
2022-11-10T10:02:15.166Z,8.70
2022-11-10T10:05:00.785Z,8.70
2022-11-10T10:07:31.314Z,8.80
2022-11-10T10:10:01.171Z,8.80
2022-11-10T10:12:48.730Z,8.90
2022-11-10T10:15:31.031Z,8.90
2022-11-10T10:18:16.055Z,9.00
2022-11-10T10:20:57.754Z,9.00
2022-11-10T10:23:47.162Z,9.10
2022-11-10T10:26:21.631Z,9.10
2022-11-10T10:28:50.816Z,9.10
2022-11-10T10:31:24.280Z,9.20
2022-11-10T10:33:52.350Z,9.20
2022-11-10T10:36:29.457Z,9.20
2022-11-10T10:39:11.120Z,9.30
2022-11-10T10:41:38.496Z,9.30
2022-11-10T10:44:14.487Z,9.30
2022-11-10T10:47:02.833Z,9.40
2022-11-10T10:49:31.821Z,9.40
2022-11-10T10:52:16.422Z,9.40
2022-11-10T10:54:43.939Z,9.50
2022-11-10T10:57:31.586Z,9.50
2022-11-10T11:00:31.426Z,9.60
2022-11-10T11:03:06.334Z,9.60
2022-11-10T11:05:33.507Z,9.70
2022-11-10T11:08:01.921Z,9.70
2022-11-10T11:10:35.899Z,9.70
2022-11-10T11:13:27.004Z,9.70
2022-11-10T11:16:02.468Z,9.70
2022-11-10T11:18:31.210Z,9.70
2022-11-10T11:21:22.348Z,9.70
2022-11-10T11:24:25.923Z,9.70
2022-11-10T11:27:11.493Z,9.70
2022-11-10T11:29:54.947Z,9.80
2022-11-10T11:32:33.612Z,9.70
2022-11-10T11:35:27.686Z,9.70
2022-11-10T11:38:23.212Z,9.80
2022-11-10T11:41:28.529Z,9.90
2022-11-10T11:44:13.959Z,9.90
2022-11-10T11:46:43.666Z,9.90
2022-11-10T11:49:42.116Z,10.00
2022-11-10T11:52:18.044Z,10.00
2022-11-10T11:54:49.396Z,10.10
2022-11-10T11:57:38.807Z,10.10
2022-11-10T12:00:14.338Z,10.10
2022-11-10T12:02:58.635Z,10.20
2022-11-10T12:05:43.042Z,10.20
2022-11-10T12:08:17.220Z,10.20
2022-11-10T12:10:49.809Z,10.20
2022-11-10T12:13:36.756Z,10.30
2022-11-10T12:16:31.636Z,10.30
2022-11-10T12:19:21.884Z,10.40
2022-11-10T12:22:11.524Z,10.40
2022-11-10T12:24:53.600Z,10.40
2022-11-10T12:27:30.991Z,10.40
2022-11-10T12:30:12.075Z,10.40
2022-11-10T12:33:14.164Z,10.40
2022-11-10T12:35:43.922Z,10.30
2022-11-10T12:38:22.050Z,10.40
2022-11-10T12:40:51.900Z,10.40
2022-11-10T12:43:35.562Z,10.30
2022-11-10T12:46:08.427Z,10.40
2022-11-10T12:48:48.058Z,10.40
2022-11-10T12:51:25.170Z,10.30
2022-11-10T12:53:52.736Z,10.40
2022-11-10T12:56:25.880Z,10.50
2022-11-10T12:59:20.410Z,10.50
2022-11-10T13:01:52.178Z,10.60
2022-11-10T13:04:20.925Z,10.60
2022-11-10T13:07:10.269Z,10.60
2022-11-10T13:09:43.294Z,10.70
2022-11-10T13:12:24.393Z,10.70
2022-11-10T13:14:51.292Z,10.60
2022-11-10T13:17:26.821Z,10.60
2022-11-10T13:19:59.001Z,10.60
2022-11-10T13:22:37.667Z,10.60
2022-11-10T13:25:36.197Z,10.60
2022-11-10T13:28:04.437Z,10.50
2022-11-10T13:30:41.847Z,10.60
2022-11-10T13:33:41.191Z,10.60
2022-11-10T13:36:08.813Z,10.60
2022-11-10T13:38:43.805Z,10.60
2022-11-10T13:41:16.613Z,10.60
2022-11-10T13:43:54.769Z,10.60
2022-11-10T13:46:33.594Z,10.60
2022-11-10T13:49:39.174Z,10.60
2022-11-10T13:52:25.164Z,10.70
2022-11-10T13:55:16.422Z,10.70
2022-11-10T13:58:04.016Z,10.70
2022-11-10T14:00:35.574Z,10.80
2022-11-10T14:03:04.970Z,10.80
2022-11-10T14:05:32.614Z,10.80
2022-11-10T14:08:23.831Z,10.70
2022-11-10T14:10:52.142Z,10.70
2022-11-10T14:13:48.194Z,10.70
2022-11-10T14:16:19.293Z,10.60
2022-11-10T14:18:57.567Z,10.60
2022-11-10T14:21:39.064Z,10.50
2022-11-10T14:25:04.250Z,10.50
2022-11-10T14:27:35.583Z,10.50
2022-11-10T14:30:07.433Z,10.50
2022-11-10T14:32:34.273Z,10.50
2022-11-10T14:35:02.070Z,10.40
2022-11-10T14:37:30.084Z,10.40
2022-11-10T14:39:59.080Z,10.40
2022-11-10T14:42:29.750Z,10.40
2022-11-10T14:45:19.278Z,10.30
2022-11-10T14:47:57.360Z,10.30
2022-11-10T14:50:31.895Z,10.30
2022-11-10T14:53:12.613Z,10.30
2022-11-10T14:55:44.653Z,10.30
2022-11-10T14:58:35.721Z,10.30
2022-11-10T15:01:04.682Z,10.30
2022-11-10T15:03:41.768Z,10.30
2022-11-10T15:06:11.544Z,10.30
2022-11-10T15:08:40.742Z,10.20
2022-11-10T15:11:08.081Z,10.20
2022-11-10T15:13:39.072Z,10.20
2022-11-10T15:16:28.393Z,10.10
2022-11-10T15:18:57.478Z,10.10
2022-11-10T15:21:34.230Z,10.10
2022-11-10T15:24:05.549Z,10.10
2022-11-10T15:26:38.843Z,10.00
2022-11-10T15:29:06.094Z,10.00
2022-11-10T15:31:34.068Z,10.00
2022-11-10T15:34:04.608Z,10.00
2022-11-10T15:36:34.135Z,10.00
2022-11-10T15:39:25.026Z,10.00
2022-11-10T15:41:58.116Z,10.00
2022-11-10T15:44:28.084Z,10.00
2022-11-10T15:46:56.794Z,10.00
2022-11-10T15:49:35.977Z,10.00
2022-11-10T15:52:06.234Z,10.00
2022-11-10T15:54:42.355Z,10.00
2022-11-10T15:57:14.507Z,10.00
2022-11-10T15:59:41.828Z,10.00
2022-11-10T16:02:19.543Z,9.90
2022-11-10T16:04:46.940Z,9.90
2022-11-10T16:07:13.804Z,9.90
2022-11-10T16:09:40.550Z,9.90
2022-11-10T16:12:18.565Z,9.90
2022-11-10T16:14:49.692Z,9.80
2022-11-10T16:17:17.673Z,9.80
2022-11-10T16:19:45.942Z,9.80
2022-11-10T16:22:13.501Z,9.80
2022-11-10T16:24:41.360Z,9.80
2022-11-10T16:27:12.545Z,9.70
2022-11-10T16:29:40.074Z,9.80
2022-11-10T16:32:07.030Z,9.70
2022-11-10T16:34:33.820Z,9.70
2022-11-10T16:37:00.936Z,9.70
2022-11-10T16:39:27.717Z,9.70
2022-11-10T16:41:54.484Z,9.70
2022-11-10T16:44:25.284Z,9.70
2022-11-10T16:46:58.769Z,9.70
2022-11-10T16:49:29.313Z,9.70
2022-11-10T16:51:56.168Z,9.60
2022-11-10T16:54:23.011Z,9.60
2022-11-10T16:56:49.810Z,9.60
2022-11-10T16:59:17.041Z,9.60
2022-11-10T17:01:45.667Z,9.60
2022-11-10T17:04:18.428Z,9.60
2022-11-10T17:06:45.797Z,9.60
2022-11-10T17:09:20.058Z,9.60
2022-11-10T17:11:47.125Z,9.60
2022-11-10T17:14:14.392Z,9.60
2022-11-10T17:16:44.158Z,9.60
2022-11-10T17:19:23.528Z,9.50
2022-11-10T17:21:51.372Z,9.50
2022-11-10T17:24:18.793Z,9.50
2022-11-10T17:26:46.193Z,9.50
2022-11-10T17:29:24.538Z,9.50
2022-11-10T17:31:51.388Z,9.50
2022-11-10T17:34:18.232Z,9.40
2022-11-10T17:36:44.957Z,9.40
2022-11-10T17:39:16.690Z,9.40
2022-11-10T17:41:43.814Z,9.30
2022-11-10T17:44:15.516Z,9.30
2022-11-10T17:46:43.199Z,9.30
2022-11-10T17:49:10.024Z,9.30
2022-11-10T17:51:37.238Z,9.30
2022-11-10T17:54:04.443Z,9.30
2022-11-10T17:56:32.179Z,9.30
2022-11-10T17:58:58.962Z,9.30
2022-11-10T18:01:25.845Z,9.40
2022-11-10T18:03:52.605Z,9.30
2022-11-10T18:06:20.910Z,9.40
2022-11-10T18:08:48.712Z,9.30
2022-11-10T18:11:17.843Z,9.30
2022-11-10T18:13:45.028Z,9.40
2022-11-10T18:16:14.081Z,9.30
2022-11-10T18:18:41.402Z,9.30
2022-11-10T18:21:09.946Z,9.40
2022-11-10T18:23:36.636Z,9.30
2022-11-10T18:26:08.261Z,9.30
2022-11-10T18:28:35.836Z,9.30
2022-11-10T18:31:10.844Z,9.20
2022-11-10T18:33:37.607Z,9.20
2022-11-10T18:36:04.863Z,9.20
2022-11-10T18:38:31.718Z,9.20
2022-11-10T18:41:25.670Z,9.20
2022-11-10T18:43:52.647Z,9.10
2022-11-10T18:46:19.455Z,9.10
2022-11-10T18:48:46.867Z,9.10
2022-11-10T18:51:15.652Z,9.00
2022-11-10T18:53:42.403Z,9.00
2022-11-10T18:56:09.251Z,8.90
2022-11-10T18:58:35.958Z,8.90
2022-11-10T19:01:07.467Z,8.90
2022-11-10T19:03:35.148Z,8.80
2022-11-10T19:06:01.865Z,8.80
2022-11-10T19:08:29.071Z,8.80
2022-11-10T19:10:56.834Z,8.80
2022-11-10T19:13:23.978Z,8.80
2022-11-10T19:15:51.036Z,8.70
2022-11-10T19:18:17.839Z,8.70
2022-11-10T19:20:44.536Z,8.70
2022-11-10T19:23:11.562Z,8.70
2022-11-10T19:25:38.359Z,8.60
2022-11-10T19:28:05.156Z,8.50
2022-11-10T19:30:31.953Z,8.50
2022-11-10T19:32:58.775Z,8.40
2022-11-10T19:35:25.467Z,8.40
2022-11-10T19:37:54.140Z,8.30
2022-11-10T19:40:22.445Z,8.20
2022-11-10T19:42:49.519Z,8.20
2022-11-10T19:45:16.764Z,8.10
2022-11-10T19:47:44.035Z,8.10
2022-11-10T19:50:10.846Z,8.00
2022-11-10T19:52:37.586Z,8.00
2022-11-10T19:55:04.615Z,7.90
2022-11-10T19:57:31.405Z,7.90
2022-11-10T19:59:58.142Z,7.80
2022-11-10T20:02:24.912Z,7.80
2022-11-10T20:05:10.218Z,7.80
2022-11-10T20:07:55.589Z,7.80
2022-11-10T20:10:22.457Z,7.80
2022-11-10T20:12:49.609Z,7.80
2022-11-10T20:15:16.551Z,7.80
2022-11-10T20:17:43.251Z,7.90
2022-11-10T20:20:10.445Z,7.90
2022-11-10T20:22:37.192Z,7.90
2022-11-10T20:25:04.408Z,7.90
2022-11-10T20:27:31.606Z,7.90
2022-11-10T20:30:00.157Z,7.90
2022-11-10T20:32:27.792Z,7.90
2022-11-10T20:34:54.636Z,7.90
2022-11-10T20:37:21.799Z,7.90
2022-11-10T20:39:48.551Z,7.90
2022-11-10T20:42:15.309Z,7.90
2022-11-10T20:44:42.163Z,7.90
2022-11-10T20:47:09.058Z,7.90
2022-11-10T20:49:35.975Z,7.90
2022-11-10T20:52:03.384Z,7.90
2022-11-10T20:54:30.355Z,7.90
2022-11-10T20:56:57.124Z,7.80
2022-11-10T20:59:24.025Z,7.80
2022-11-10T21:01:50.868Z,7.80
2022-11-10T21:04:18.587Z,7.70
2022-11-10T21:06:47.152Z,7.80
2022-11-10T21:09:14.296Z,7.80
2022-11-10T21:11:59.818Z,7.80
2022-11-10T21:14:26.718Z,7.80
2022-11-10T21:16:56.843Z,7.80
2022-11-10T21:19:25.225Z,7.80
2022-11-10T21:21:52.338Z,7.80
2022-11-10T21:24:19.705Z,7.80
2022-11-10T21:26:46.477Z,7.80
2022-11-10T21:29:14.791Z,7.70
2022-11-10T21:31:43.024Z,7.70
2022-11-10T21:34:09.995Z,7.60
2022-11-10T21:36:36.941Z,7.70
2022-11-10T21:39:03.770Z,7.70
2022-11-10T21:41:30.545Z,7.60
2022-11-10T21:43:57.843Z,7.60
2022-11-10T21:46:27.002Z,7.60
2022-11-10T21:48:54.804Z,7.60
2022-11-10T21:51:21.748Z,7.60
2022-11-10T21:53:48.566Z,7.60
2022-11-10T21:56:15.322Z,7.50
2022-11-10T21:58:42.222Z,7.50
2022-11-10T22:01:19.129Z,7.40
2022-11-10T22:03:46.382Z,7.40
2022-11-10T22:06:18.202Z,7.30
2022-11-10T22:08:48.297Z,7.30
2022-11-10T22:11:36.629Z,7.20
2022-11-10T22:14:19.815Z,7.20
2022-11-10T22:17:07.282Z,7.10
2022-11-10T22:19:35.349Z,7.10
2022-11-10T22:22:04.121Z,7.00
2022-11-10T22:24:32.285Z,7.00
2022-11-10T22:27:03.747Z,6.90
2022-11-10T22:29:33.835Z,6.90
2022-11-10T22:32:01.772Z,6.80
2022-11-10T22:34:28.635Z,6.80
2022-11-10T22:36:55.372Z,6.70
2022-11-10T22:39:22.601Z,6.60
2022-11-10T22:42:09.493Z,6.60
2022-11-10T22:44:36.541Z,6.50
2022-11-10T22:47:03.416Z,6.50
2022-11-10T22:49:31.612Z,6.40
2022-11-10T22:51:58.356Z,6.40
2022-11-10T22:54:26.768Z,6.40
2022-11-10T22:56:53.537Z,6.30
2022-11-10T22:59:21.766Z,6.30
2022-11-10T23:01:48.546Z,6.20
2022-11-10T23:04:16.158Z,6.00
2022-11-10T23:06:43.248Z,6.00
2022-11-10T23:09:10.128Z,6.00
2022-11-10T23:11:36.943Z,5.90
2022-11-10T23:14:06.054Z,5.90
2022-11-10T23:16:34.878Z,5.80
2022-11-10T23:19:03.412Z,5.80
2022-11-10T23:21:31.022Z,5.70
2022-11-10T23:23:57.972Z,5.70
2022-11-10T23:26:30.228Z,5.60
2022-11-10T23:28:57.042Z,5.50
2022-11-10T23:31:26.590Z,5.50
2022-11-10T23:33:55.342Z,5.50
2022-11-10T23:36:24.863Z,5.40
2022-11-10T23:38:52.213Z,5.40
2022-11-10T23:41:20.884Z,5.30
2022-11-10T23:43:47.952Z,5.30
2022-11-10T23:46:15.244Z,5.20
2022-11-10T23:48:42.575Z,5.30
2022-11-10T23:51:12.254Z,5.20
2022-11-10T23:53:39.034Z,5.20
2022-11-10T23:56:09.592Z,5.10
2022-11-10T23:58:36.381Z,5.10
